Terminal Aerodrome Forecast
Issued by NWS Atlanta, GA

Home | Current Version | Previous Version | Text Only | Print | Product List | Glossary On
Versions: 1 2 3 4 5 6 7 8 9 10 11 12 13 14 15 16 17 18 19
000
FTUS42 KFFC 231120
TAFMCN
TAF
KMCN 231120Z 2312/2412 06006KT P6SM SCT030 BKN045
      TEMPO 2312/2315 BKN030
     FM232100 04006KT P6SM SCT045 SCT250
     FM240000 03003KT P6SM FEW250=

USA.gov is the U.S. government's official web portal to all federal, state and local government web resources and services.